Terminal Aerodrome Forecast
Issued by NWS Lubbock, TX

Home | Current Version | Previous Version | Text Only | Print | Product List | Glossary On
Versions: 1 2 3 4 5 6 7 8 9 10 11 12 13 14
748
FTUS44 KLUB 271120
TAFLBB
TAF
KLBB 271120Z 2712/2812 15010KT P6SM SCT150 SCT250 WS008/21040KT
     FM271400 20011KT P6SM SCT150 SCT250
     FM271800 17018G26KT P6SM SCT120 SCT250
     FM280100 14016KT P6SM FEW120 SCT250=

USA.gov is the U.S. government's official web portal to all federal, state and local government web resources and services.